Northeast Iowa Regional Airport Charles City US
ICAO: KCCY
IATA: CCY
Category: Medium
Scheduled Services: No

Elevation: 1125 ft
TransAlt. 18000 ft.

Airport Communications:
WATERLOO APP/DEP:118.9
AWOS 3:125.525
FORT DODGE RDO:122.4
CTAF/UNICOM:122.8

KCCY Zoom In..

Runways:

(A) RW 04 length 2536 ft width 160 ft
LOC 108.30 / hdg 42

(B) RW 12 length 4000 ft width 75 ft
LOC 108.30 / hdg 122

(C) RW 18 length 1780 ft width 170 ft
LOC 108.30 / hdg 177

(D) RW 22 length 2536 ft width 160 ft
LOC 108.30 / hdg 222

(E) RW 30 length 4000 ft width 75 ft
LOC 108.30 / hdg 302

(F) RW 36 length 1780 ft width 170 ft
LOC 108.30 / hdg 357

Location; KCCY
Day. 23 / Time. 15.35 Zulu
* Altimeter: 29.98
* Temperature: -06° c. -21.2°f.
* Wind from: 340° Speed 21 kn.
Dewpoint: -06° c.
Visibility: 10 Statute Miles.
Clouds: Overcast 1200 ft.

KCCY 231535Z AUTO 34021KT 10SM OVC012 M06/M06 A2998 RMK AO2


Wind From 340°
Speed 21 kn.

YouTube Music Video
 
jpsmedia.com for Web Design  worldairports.se 2018   terms of use